Time;durP1;ratioP1;P1;durP2;ratioP2;P2;SDS_P1;SDS_P2;PMS_P1;PMS_P2;Temp;Humidity;BMP_temperature;BMP_pressure;BME280_temperature;BME280_humidity;BME280_pressure;Samples;Min_cycle;Max_cycle;Signal;HPM_P1;HPM_P2
2023/08/08 00:01:35;;;;;;;3.65;1.70;;;;;;;13.95;79.55;101371.09;4973488;28;20018;-88
2023/08/08 00:04:00;;;;;;;3.05;1.63;;;;;;;13.95;79.59;101366.69;4989439;28;20478;-88
2023/08/08 00:06:27;;;;;;;3.10;1.60;;;;;;;13.93;79.73;101362.44;4987677;28;20030;-88
2023/08/08 00:08:52;;;;;;;2.88;1.58;;;;;;;13.93;79.82;101357.19;4991632;28;20025;-88
2023/08/08 00:11:17;;;;;;;2.78;1.80;;;;;;;13.94;79.71;101361.53;4988737;28;20038;-89
2023/08/08 00:13:42;;;;;;;3.55;1.70;;;;;;;13.94;79.86;101364.16;4993692;28;20022;-89
2023/08/08 00:16:08;;;;;;;2.28;1.60;;;;;;;13.93;80.04;101367.66;4987465;28;20397;-88
2023/08/08 00:18:33;;;;;;;3.53;1.63;;;;;;;13.92;80.47;101368.56;4993688;28;20026;-89
2023/08/08 00:20:58;;;;;;;2.38;1.63;;;;;;;13.92;80.29;101368.56;4993306;28;20510;-88
2023/08/08 00:23:23;;;;;;;4.43;1.90;;;;;;;13.91;80.53;101364.25;4989390;28;20034;-88
2023/08/08 00:25:50;;;;;;;3.80;1.95;;;;;;;13.90;80.31;101363.41;4993470;28;20155;-86
2023/08/08 00:28:16;;;;;;;3.00;1.58;;;;;;;13.90;80.57;101363.41;4993425;28;20014;-88
2023/08/08 00:30:42;;;;;;;3.88;2.00;;;;;;;13.90;80.78;101363.41;4989618;28;20037;-88
2023/08/08 00:33:07;;;;;;;4.40;1.90;;;;;;;13.87;80.73;101358.25;4993431;28;20393;-88
2023/08/08 00:35:32;;;;;;;3.30;1.83;;;;;;;13.86;81.03;101353.94;4993341;28;20108;-86
2023/08/08 00:37:58;;;;;;;4.18;2.00;;;;;;;13.86;80.68;101353.94;4999140;28;20030;-87
2023/08/08 00:40:23;;;;;;;4.15;2.15;;;;;;;13.84;80.89;101347.00;4993627;28;20161;-88
2023/08/08 00:42:48;;;;;;;6.88;1.90;;;;;;;13.82;80.94;101347.06;4993744;28;20037;-88
2023/08/08 00:45:14;;;;;;;3.13;1.65;;;;;;;13.80;81.27;101347.13;4993359;28;20105;-88
2023/08/08 00:47:39;;;;;;;3.30;1.80;;;;;;;13.79;81.34;101347.16;4993180;28;20074;-87
2023/08/08 00:50:05;;;;;;;2.40;1.65;;;;;;;13.79;81.15;101360.25;4992879;28;20034;-88
2023/08/08 00:52:31;;;;;;;3.25;1.77;;;;;;;13.79;81.30;101350.66;4993578;28;20030;-87
2023/08/08 00:54:56;;;;;;;3.15;1.77;;;;;;;13.79;81.13;101345.41;4993107;28;20037;-88
2023/08/08 00:57:22;;;;;;;4.13;1.80;;;;;;;13.80;81.12;101346.25;4993287;28;20026;-88
2023/08/08 00:59:47;;;;;;;3.50;1.83;;;;;;;13.81;81.24;101350.59;4993541;28;20367;-89
2023/08/08 01:02:13;;;;;;;5.97;1.92;;;;;;;13.81;81.32;101354.06;4992740;28;20026;-88
2023/08/08 01:04:39;;;;;;;3.83;1.88;;;;;;;13.80;81.41;101341.91;4992898;28;20041;-88
2023/08/08 01:07:15;;;;;;;2.65;1.75;;;;;;;13.81;81.34;101348.84;4974083;28;20138;-88
2023/08/08 01:09:50;;;;;;;3.70;1.80;;;;;;;13.83;81.30;101345.31;4974008;28;20031;-89
2023/08/08 01:12:16;;;;;;;4.90;1.65;;;;;;;13.81;81.79;101346.22;4992199;28;20089;-88
2023/08/08 01:14:43;;;;;;;3.60;2.15;;;;;;;13.80;81.99;101335.81;4992734;28;20037;-88
2023/08/08 01:17:10;;;;;;;3.75;1.77;;;;;;;13.81;81.62;101342.75;4992790;28;20041;-88
2023/08/08 01:19:35;;;;;;;3.00;1.75;;;;;;;13.80;81.96;101336.69;4993070;28;20457;-89
2023/08/08 01:22:20;;;;;;;4.13;1.80;;;;;;;13.80;81.44;101344.53;4980895;28;20034;-89
2023/08/08 01:24:46;;;;;;;3.97;1.95;;;;;;;13.81;81.88;101346.22;4992663;28;20489;-88
2023/08/08 01:27:11;;;;;;;3.30;1.55;;;;;;;13.79;81.80;101342.81;4993208;28;20072;-89
2023/08/08 01:29:37;;;;;;;4.22;1.70;;;;;;;13.80;82.49;101341.91;4992574;28;20038;-88
2023/08/08 01:32:03;;;;;;;4.75;1.90;;;;;;;13.79;82.84;101329.72;4992814;28;20433;-88
2023/08/08 01:34:28;;;;;;;3.63;1.92;;;;;;;13.79;83.51;101334.97;4964579;28;20034;-88
2023/08/08 01:37:06;;;;;;;5.10;1.90;;;;;;;13.78;83.36;101343.69;4993035;28;20081;-88
2023/08/08 01:39:32;;;;;;;5.45;1.92;;;;;;;13.79;84.16;101344.53;4993206;28;20077;-89
2023/08/08 01:42:00;;;;;;;4.88;2.00;;;;;;;13.78;84.53;101337.59;4992520;28;20555;-88
2023/08/08 01:44:26;;;;;;;4.72;1.95;;;;;;;13.77;84.49;101328.03;4992200;28;20444;-88
2023/08/08 01:46:54;;;;;;;2.38;1.70;;;;;;;13.75;84.80;101338.56;4992734;28;20034;-89
2023/08/08 01:49:20;;;;;;;3.35;2.05;;;;;;;13.75;84.95;101329.88;4992814;28;20030;-88
2023/08/08 01:51:45;;;;;;;2.95;1.65;;;;;;;13.75;84.60;101330.72;4992769;28;20045;-87
2023/08/08 01:54:11;;;;;;;2.92;1.75;;;;;;;13.74;85.28;101331.63;4992972;28;20058;-89
2023/08/08 01:56:36;;;;;;;4.25;1.80;;;;;;;13.74;85.08;101330.78;4992532;28;20064;-89
2023/08/08 01:59:02;;;;;;;5.47;2.03;;;;;;;13.73;85.40;101326.44;4992824;28;20498;-88
2023/08/08 02:01:27;;;;;;;5.60;2.17;;;;;;;13.73;85.80;101322.06;4992937;28;20144;-88
2023/08/08 02:03:52;;;;;;;4.45;2.17;;;;;;;13.72;86.00;101325.56;4992901;28;20677;-88
2023/08/08 02:06:18;;;;;;;5.10;2.10;;;;;;;13.71;86.28;101326.47;4994172;28;20018;-88
2023/08/08 02:08:44;;;;;;;5.40;2.30;;;;;;;13.71;86.08;101321.25;4995126;28;20392;-88
2023/08/08 02:11:10;;;;;;;4.05;2.03;;;;;;;13.68;86.19;101317.88;4977709;28;20433;-88
2023/08/08 02:13:35;;;;;;;6.13;2.13;;;;;;;13.67;86.11;101319.63;4995166;28;20034;-88
2023/08/08 02:16:00;;;;;;;5.38;2.20;;;;;;;13.68;86.77;101315.28;4994490;28;20038;-88
2023/08/08 02:18:26;;;;;;;4.28;2.00;;;;;;;13.66;86.69;101312.72;4994421;28;20030;-88
2023/08/08 02:20:51;;;;;;;4.80;2.33;;;;;;;13.64;87.11;101306.69;4994038;28;20489;-88
2023/08/08 02:23:16;;;;;;;4.32;1.98;;;;;;;13.63;87.13;101308.41;4994430;28;20045;-88
2023/08/08 02:25:41;;;;;;;4.05;1.92;;;;;;;13.62;87.26;101305.88;4994078;28;20026;-88
2023/08/08 02:28:07;;;;;;;4.70;2.28;;;;;;;13.60;87.11;101299.81;4994567;28;20037;-88
2023/08/08 02:30:32;;;;;;;5.53;2.30;;;;;;;13.60;86.92;101307.66;4993325;28;20030;-89
2023/08/08 02:32:58;;;;;;;7.47;2.40;;;;;;;13.60;87.32;101311.13;4994108;28;20062;-89
2023/08/08 02:35:23;;;;;;;5.18;2.28;;;;;;;13.59;87.27;101303.34;4993535;28;20030;-88
2023/08/08 02:37:48;;;;;;;3.38;2.10;;;;;;;13.59;87.27;101305.97;4993806;28;20046;-88
2023/08/08 02:40:13;;;;;;;3.75;2.20;;;;;;;13.58;87.55;101306.84;4993927;28;20019;-88
2023/08/08 02:42:39;;;;;;;5.60;2.30;;;;;;;13.58;87.53;101299.00;4994045;28;20382;-88
2023/08/08 02:45:05;;;;;;;3.72;2.13;;;;;;;13.57;87.61;101295.56;4992692;28;20053;-88
2023/08/08 02:47:30;;;;;;;4.55;2.00;;;;;;;13.58;87.66;101293.78;4993971;28;20454;-88
2023/08/08 02:49:55;;;;;;;4.00;1.98;;;;;;;13.58;87.79;101293.78;4993525;28;20050;-87
2023/08/08 02:52:20;;;;;;;4.60;2.22;;;;;;;13.58;88.22;101283.31;4993763;28;20093;-87
2023/08/08 02:54:46;;;;;;;6.00;2.42;;;;;;;13.56;88.23;101287.75;4992983;28;20045;-88
2023/08/08 02:57:11;;;;;;;5.25;2.20;;;;;;;13.57;88.40;101285.09;4992742;28;20363;-87
2023/08/08 02:59:37;;;;;;;4.85;2.38;;;;;;;13.56;88.31;101280.78;4995189;28;20034;-88
2023/08/08 03:02:03;;;;;;;5.95;2.30;;;;;;;13.56;88.54;101280.78;4977595;28;20026;-88
2023/08/08 03:04:29;;;;;;;4.78;2.25;;;;;;;13.59;88.61;101285.03;4989787;28;20034;-89
2023/08/08 03:06:54;;;;;;;5.00;2.30;;;;;;;13.58;89.09;101278.09;4993117;28;20034;-89
2023/08/08 03:09:19;;;;;;;6.30;2.35;;;;;;;13.58;89.05;101278.09;4994460;28;20031;-88
2023/08/08 03:11:44;;;;;;;5.20;2.13;;;;;;;13.58;89.24;101283.31;4977286;28;20117;-87
2023/08/08 03:14:10;;;;;;;5.70;2.40;;;;;;;13.57;89.31;101277.25;4995377;28;20034;-88
2023/08/08 03:16:35;;;;;;;8.00;2.42;;;;;;;13.57;89.04;101279.00;4992034;28;20026;-89
2023/08/08 03:19:00;;;;;;;5.25;2.45;;;;;;;13.56;89.42;101283.38;4995432;28;20465;-88
2023/08/08 03:21:26;;;;;;;7.35;2.42;;;;;;;13.57;89.41;101289.47;4993989;28;20034;-89
2023/08/08 03:23:51;;;;;;;6.45;2.63;;;;;;;13.55;89.68;101279.06;4994999;28;20042;-87
2023/08/08 03:26:16;;;;;;;5.75;2.50;;;;;;;13.56;89.73;101285.13;4993668;28;20070;-88
2023/08/08 03:28:41;;;;;;;7.13;2.83;;;;;;;13.56;89.97;101287.75;4994802;28;20036;-88
2023/08/08 03:31:07;;;;;;;7.35;2.45;;;;;;;13.54;89.75;101276.47;4994895;28;20034;-89
2023/08/08 03:33:32;;;;;;;6.13;2.78;;;;;;;13.53;90.05;101272.16;4994303;28;20466;-87
2023/08/08 03:35:58;;;;;;;4.85;2.42;;;;;;;13.50;89.64;101271.34;4994318;28;20030;-87
2023/08/08 03:38:23;;;;;;;6.85;2.60;;;;;;;13.50;90.08;101287.03;4995089;28;20033;-89
2023/08/08 03:40:48;;;;;;;6.35;2.40;;;;;;;13.49;89.86;101282.69;4994762;28;20073;-89
2023/08/08 03:43:13;;;;;;;7.38;2.40;;;;;;;13.49;90.33;101289.69;4994804;28;20482;-88
2023/08/08 03:45:39;;;;;;;5.32;2.30;;;;;;;13.47;90.20;101276.69;4994796;28;20034;-89
2023/08/08 03:48:04;;;;;;;7.00;2.60;;;;;;;13.47;90.44;101281.03;4993114;28;20038;-89
2023/08/08 03:50:30;;;;;;;7.55;2.70;;;;;;;13.46;90.87;101269.75;4994561;28;20085;-87
2023/08/08 03:52:55;;;;;;;7.80;2.95;;;;;;;13.45;90.98;101273.25;4994584;28;20034;-88
2023/08/08 03:55:20;;;;;;;5.13;2.60;;;;;;;13.45;91.07;101265.41;4994105;28;20093;-89
2023/08/08 03:57:46;;;;;;;7.78;2.80;;;;;;;13.44;90.92;101268.94;4993827;28;20430;-87
2023/08/08 04:00:11;;;;;;;8.70;2.83;;;;;;;13.44;90.87;101268.06;4994502;28;20022;-89
2023/08/08 04:02:37;;;;;;;7.68;2.83;;;;;;;13.41;91.46;101263.81;4994206;28;20025;-88
2023/08/08 04:05:02;;;;;;;6.95;2.70;;;;;;;13.41;91.37;101261.19;4994015;28;20533;-89
2023/08/08 04:07:27;;;;;;;6.22;2.63;;;;;;;13.40;91.40;101259.47;4992620;28;20417;-88
2023/08/08 04:09:53;;;;;;;9.75;3.00;;;;;;;13.37;91.63;101264.75;4993541;28;20088;-88
2023/08/08 04:12:18;;;;;;;8.32;2.75;;;;;;;13.35;91.76;101258.72;4993561;28;20026;-89
2023/08/08 04:14:43;;;;;;;5.20;2.97;;;;;;;13.33;91.78;101263.13;4974602;28;20489;-89
2023/08/08 04:17:08;;;;;;;7.72;3.13;;;;;;;13.30;91.70;101266.69;4993934;28;20026;-88
2023/08/08 04:19:34;;;;;;;7.40;3.20;;;;;;;13.30;91.82;101258.03;4993530;28;20058;-89
2023/08/08 04:21:59;;;;;;;5.75;2.90;;;;;;;13.28;92.06;101259.81;4993215;28;20033;-88
2023/08/08 04:24:25;;;;;;;8.15;3.10;;;;;;;13.26;92.40;101267.69;4993676;28;20030;-89
2023/08/08 04:26:50;;;;;;;8.38;3.25;;;;;;;13.24;92.68;101256.44;4994036;28;20025;-89
2023/08/08 04:29:15;;;;;;;8.40;3.20;;;;;;;13.21;92.71;101254.78;4991168;28;20057;-89
2023/08/08 04:31:40;;;;;;;7.63;3.17;;;;;;;13.19;92.64;101243.50;4992158;28;20478;-87
2023/08/08 04:34:06;;;;;;;8.00;3.17;;;;;;;13.18;92.71;101254.84;4993155;28;20026;-87
2023/08/08 04:36:31;;;;;;;6.82;3.35;;;;;;;13.17;92.85;101250.53;4993669;28;20030;-84
2023/08/08 04:38:56;;;;;;;5.30;3.05;;;;;;;13.16;93.01;101256.66;4996667;28;20034;-87
2023/08/08 04:41:21;;;;;;;7.32;3.38;;;;;;;13.14;93.06;101261.09;4993582;28;20097;-88
2023/08/08 04:43:47;;;;;;;7.70;3.28;;;;;;;13.12;93.03;101265.50;4993467;28;20508;-88
2023/08/08 04:46:12;;;;;;;6.57;3.22;;;;;;;13.12;93.19;101267.25;4992597;28;20092;-88
2023/08/08 04:48:38;;;;;;;6.32;3.22;;;;;;;13.11;93.18;101271.63;4993455;28;20018;-88
2023/08/08 04:51:06;;;;;;;7.63;3.17;;;;;;;13.10;93.68;101269.06;4992519;28;20034;-88
2023/08/08 04:53:32;;;;;;;8.73;3.63;;;;;;;13.09;93.50;101262.97;4992507;28;20474;-88
2023/08/08 04:55:57;;;;;;;8.82;3.20;;;;;;;13.07;93.66;101262.16;4992298;28;20033;-88
2023/08/08 04:58:22;;;;;;;5.82;2.90;;;;;;;13.06;93.80;101261.28;4992440;28;20030;-88
2023/08/08 05:00:48;;;;;;;8.25;3.10;;;;;;;13.06;93.95;101263.06;4991204;28;20101;-88
2023/08/08 05:03:13;;;;;;;9.05;3.20;;;;;;;13.05;93.78;101261.34;4991137;28;20030;-87
2023/08/08 05:05:38;;;;;;;7.13;3.35;;;;;;;13.06;93.74;101260.47;4992940;28;20018;-89
2023/08/08 05:08:04;;;;;;;9.05;3.17;;;;;;;13.08;94.10;101265.63;4992739;28;20564;-89
2023/08/08 05:10:31;;;;;;;8.07;3.30;;;;;;;13.08;93.94;101258.66;4988530;28;20026;-90
2023/08/08 05:12:56;;;;;;;7.82;3.03;;;;;;;13.09;94.27;101260.38;4975063;28;20034;-88
2023/08/08 05:15:21;;;;;;;7.22;3.05;;;;;;;13.09;93.97;101259.50;4993052;28;20041;-88
2023/08/08 05:17:47;;;;;;;7.90;3.17;;;;;;;13.11;94.08;101262.94;4991689;28;20026;-88
2023/08/08 05:20:12;;;;;;;7.30;3.17;;;;;;;13.13;94.28;101263.75;4991924;28;20104;-89
2023/08/08 05:22:37;;;;;;;8.30;3.30;;;;;;;13.14;94.36;101263.72;4993137;28;20041;-89
2023/08/08 05:25:03;;;;;;;6.68;3.40;;;;;;;13.15;94.07;101260.16;4993347;28;20026;-88
2023/08/08 05:27:29;;;;;;;8.88;3.40;;;;;;;13.17;94.32;101258.38;4991301;28;20073;-87
2023/08/08 05:29:54;;;;;;;5.70;3.20;;;;;;;13.17;94.46;101258.38;4992941;28;20054;-89
2023/08/08 05:32:19;;;;;;;7.75;3.40;;;;;;;13.21;94.07;101261.78;4990884;28;20092;-88
2023/08/08 05:34:44;;;;;;;9.52;3.67;;;;;;;13.23;93.98;101251.25;4992005;28;20393;-88
2023/08/08 05:37:10;;;;;;;6.90;3.50;;;;;;;13.22;94.03;101253.03;4992787;28;20240;-89
2023/08/08 05:39:35;;;;;;;9.65;3.75;;;;;;;13.24;94.30;101260.81;4992928;28;20037;-88
2023/08/08 05:42:00;;;;;;;9.27;3.75;;;;;;;13.28;94.47;101262.44;4995131;28;20022;-89
2023/08/08 05:44:25;;;;;;;6.50;3.42;;;;;;;13.32;94.46;101266.69;4997131;28;20026;-90
2023/08/08 05:46:52;;;;;;;7.95;3.80;;;;;;;13.36;94.39;101263.91;4997091;28;20026;-88
2023/08/08 05:49:17;;;;;;;7.70;3.60;;;;;;;13.40;94.46;101269.06;4993764;28;20031;-88
2023/08/08 05:51:42;;;;;;;8.00;4.00;;;;;;;13.44;93.68;101270.69;4990245;28;20034;-90
2023/08/08 05:54:07;;;;;;;11.25;3.72;;;;;;;13.48;93.53;101269.69;4993950;28;20030;-90
2023/08/08 05:56:39;;;;;;;8.07;3.47;;;;;;;13.51;93.92;101270.44;4996699;28;20470;-89
2023/08/08 05:59:04;;;;;;;;;;;;;;;13.56;91.47;101266.84;4995346;28;20433;-90
2023/08/08 06:01:30;;;;;;;9.73;3.60;;;;;;;13.58;93.04;101270.25;4993179;28;19920;-88
2023/08/08 06:03:58;;;;;;;9.25;3.47;;;;;;;13.60;93.28;101266.69;4995659;28;20454;-90
2023/08/08 06:06:24;;;;;;;8.10;3.45;;;;;;;13.64;93.36;101270.91;4995345;28;20030;-89
2023/08/08 06:08:49;;;;;;;8.10;3.40;;;;;;;13.67;93.42;101269.94;4972913;28;20097;-88
2023/08/08 06:11:14;;;;;;;9.82;3.88;;;;;;;13.71;93.55;101268.13;4995552;28;20038;-90
2023/08/08 06:13:40;;;;;;;13.73;3.58;;;;;;;13.75;93.43;101265.34;4994645;28;20033;-87
2023/08/08 06:16:06;;;;;;;8.90;3.53;;;;;;;13.80;93.51;101273.03;4995077;28;20030;-89
2023/08/08 06:18:33;;;;;;;7.97;3.47;;;;;;;13.81;93.23;101280.84;4992532;28;20164;-89
2023/08/08 06:20:58;;;;;;;9.20;3.80;;;;;;;13.83;92.72;101278.16;4996040;28;20121;-89
2023/08/08 06:23:23;;;;;;;8.95;3.65;;;;;;;13.88;93.28;101280.63;4994014;28;20109;-88
2023/08/08 06:25:48;;;;;;;7.97;3.53;;;;;;;13.92;93.51;101279.63;4988314;28;20026;-88
2023/08/08 06:28:14;;;;;;;9.75;4.20;;;;;;;13.99;93.39;101281.16;4990038;28;20052;-88
2023/08/08 06:30:39;;;;;;;8.68;3.72;;;;;;;14.06;92.56;101287.88;4992813;28;20723;-88
2023/08/08 06:33:04;;;;;;;11.27;4.10;;;;;;;14.13;92.67;101283.28;4977125;28;20014;-88
2023/08/08 06:35:30;;;;;;;9.35;3.88;;;;;;;14.18;92.07;101288.34;4991542;28;20030;-89
2023/08/08 06:37:55;;;;;;;8.20;3.65;;;;;;;14.21;91.88;101289.13;4994359;28;20038;-87
2023/08/08 06:40:21;;;;;;;8.52;4.03;;;;;;;14.28;92.21;101295.00;4989054;28;20493;-87
2023/08/08 06:42:46;;;;;;;10.13;3.80;;;;;;;14.32;91.74;101286.16;4993134;28;20041;-90
2023/08/08 06:45:12;;;;;;;8.27;3.40;;;;;;;14.35;90.82;101288.63;4973537;28;20113;-85
2023/08/08 06:47:37;;;;;;;4.85;3.20;;;;;;;14.36;90.45;101290.34;4990758;28;20022;-85
2023/08/08 06:50:03;;;;;;;9.35;3.67;;;;;;;14.38;91.03;101293.78;4994063;28;20092;-85
2023/08/08 06:52:28;;;;;;;7.38;3.20;;;;;;;14.42;91.33;101291.94;4987096;28;21002;-85
2023/08/08 06:54:54;;;;;;;5.93;2.80;;;;;;;14.46;91.24;101284.81;4992780;28;20034;-86
2023/08/08 06:57:19;;;;;;;6.88;3.45;;;;;;;14.51;90.74;101288.13;4986560;28;20030;-86
2023/08/08 06:59:46;;;;;;;8.10;3.33;;;;;;;14.54;90.22;101295.84;4991747;28;20053;-87
2023/08/08 07:02:11;;;;;;;11.98;3.30;;;;;;;14.56;90.08;101292.31;4990432;28;20030;-86
2023/08/08 07:04:36;;;;;;;10.82;4.00;;;;;;;14.62;90.90;101299.06;4988313;28;20398;-86
2023/08/08 07:07:02;;;;;;;5.82;3.13;;;;;;;14.65;89.53;101300.72;4988943;28;20034;-86
2023/08/08 07:09:28;;;;;;;10.02;3.80;;;;;;;14.64;89.41;101297.25;4990548;28;20506;-87
2023/08/08 07:11:53;;;;;;;8.32;3.20;;;;;;;14.66;89.07;101294.56;4989672;28;20023;-86
2023/08/08 07:14:19;;;;;;;7.22;3.35;;;;;;;14.65;88.85;101291.13;4987574;28;20026;-87
2023/08/08 07:16:44;;;;;;;7.85;3.38;;;;;;;14.70;89.20;101290.97;4990148;28;20117;-85
2023/08/08 07:19:11;;;;;;;8.82;3.25;;;;;;;14.76;88.65;101284.66;4987308;28;20457;-87
2023/08/08 07:21:37;;;;;;;8.93;3.15;;;;;;;14.79;88.59;101284.56;4988387;28;20827;-87
2023/08/08 07:24:02;;;;;;;7.85;3.40;;;;;;;14.83;89.01;101286.16;4990847;28;20038;-87
2023/08/08 07:26:28;;;;;;;8.63;3.13;;;;;;;14.90;88.12;101297.25;4990346;28;20019;-86
2023/08/08 07:28:53;;;;;;;4.80;3.05;;;;;;;14.96;88.85;101294.41;4993129;28;20026;-87
2023/08/08 07:31:18;;;;;;;7.13;3.45;;;;;;;15.02;88.57;101289.81;4984530;28;20042;-85
2023/08/08 07:33:43;;;;;;;7.22;3.03;;;;;;;15.07;86.79;101286.16;4984520;28;20034;-86
2023/08/08 07:36:09;;;;;;;5.53;3.20;;;;;;;15.12;86.13;101286.84;4991232;28;20065;-88
2023/08/08 07:38:34;;;;;;;9.20;3.15;;;;;;;15.16;85.56;101283.19;4948760;28;20031;-87
2023/08/08 07:40:59;;;;;;;7.10;2.83;;;;;;;15.22;85.61;101277.69;4985195;28;20022;-87
2023/08/08 07:43:25;;;;;;;10.25;3.08;;;;;;;15.29;85.51;101284.44;4968232;28;20077;-87
2023/08/08 07:45:50;;;;;;;5.78;2.75;;;;;;;15.40;86.45;101288.38;4988495;28;20029;-86
2023/08/08 07:48:15;;;;;;;6.60;3.25;;;;;;;15.47;84.27;101276.75;4987956;28;20041;-87
2023/08/08 07:50:41;;;;;;;6.10;2.70;;;;;;;15.50;83.82;101286.25;4990481;28;20027;-87
2023/08/08 07:53:06;;;;;;;7.13;2.88;;;;;;;15.56;84.14;101275.53;4978618;28;20045;-87
2023/08/08 07:55:31;;;;;;;6.65;2.78;;;;;;;15.62;82.90;101281.38;4982103;28;20026;-87
2023/08/08 07:57:56;;;;;;;4.95;2.40;;;;;;;15.72;82.70;101281.88;4991585;28;20031;-87
2023/08/08 08:00:22;;;;;;;4.53;2.00;;;;;;;15.79;81.27;101271.97;4987931;28;20033;-87
2023/08/08 08:02:47;;;;;;;6.93;2.28;;;;;;;15.86;80.99;101278.72;4985885;28;20053;-88
2023/08/08 08:05:13;;;;;;;4.22;2.00;;;;;;;15.93;80.46;101274.91;4989073;28;20034;-87
2023/08/08 08:07:39;;;;;;;5.30;2.40;;;;;;;15.99;80.81;101278.22;4988153;28;20359;-86
2023/08/08 08:10:06;;;;;;;5.00;2.13;;;;;;;16.02;78.79;101284.19;4989685;28;20469;-88
2023/08/08 08:12:32;;;;;;;5.30;2.03;;;;;;;16.06;78.94;101277.91;4984690;28;20067;-89
2023/08/08 08:14:58;;;;;;;6.07;1.90;;;;;;;16.12;78.46;101275.94;4989323;28;20050;-87
2023/08/08 08:17:23;;;;;;;5.15;1.92;;;;;;;16.19;78.28;101282.63;4985572;28;20042;-87
2023/08/08 08:19:52;;;;;;;5.35;1.98;;;;;;;16.22;77.60;101275.50;4983597;28;20057;-88
2023/08/08 08:22:17;;;;;;;5.97;1.75;;;;;;;16.28;77.30;101284.88;4971411;28;20052;-88
2023/08/08 08:24:42;;;;;;;5.03;1.70;;;;;;;16.30;77.72;101277.78;4987255;28;20169;-88
2023/08/08 08:27:08;;;;;;;4.18;1.85;;;;;;;16.31;76.21;101278.63;4984884;28;20484;-88
2023/08/08 08:29:33;;;;;;;3.35;1.33;;;;;;;16.33;75.38;101282.03;4985742;28;20022;-87
2023/08/08 08:31:59;;;;;;;3.30;1.30;;;;;;;16.28;74.68;101287.50;4986810;28;20483;-88
2023/08/08 08:34:24;;;;;;;6.32;1.40;;;;;;;16.27;74.57;101282.28;4986323;28;20030;-86
2023/08/08 08:36:49;;;;;;;5.32;1.83;;;;;;;16.28;76.10;101289.25;4987547;28;20038;-89
2023/08/08 08:39:15;;;;;;;3.10;1.27;;;;;;;16.31;73.44;101278.63;4987249;28;20019;-87
2023/08/08 08:41:40;;;;;;;5.15;1.23;;;;;;;16.30;73.75;101276.91;4983204;28;20018;-88
2023/08/08 08:44:06;;;;;;;5.68;1.50;;;;;;;16.31;74.40;101279.47;4988162;28;20046;-88
2023/08/08 08:46:34;;;;;;;4.28;1.70;;;;;;;16.32;74.64;101270.66;4983919;28;20367;-90
2023/08/08 08:49:02;;;;;;;3.45;1.50;;;;;;;16.34;75.19;101278.50;4986084;28;20505;-93
2023/08/08 08:51:27;;;;;;;4.15;1.40;;;;;;;16.42;75.24;101280.78;4985568;28;20065;-88
2023/08/08 08:53:53;;;;;;;4.47;1.40;;;;;;;16.48;73.99;101275.28;4986550;28;20111;-88
2023/08/08 08:56:18;;;;;;;4.90;1.60;;;;;;;16.53;73.88;101278.53;4984870;28;20030;-87
2023/08/08 08:58:44;;;;;;;3.05;1.30;;;;;;;16.52;71.48;101277.69;4988421;28;20041;-85
2023/08/08 09:01:09;;;;;;;5.00;1.50;;;;;;;16.51;72.12;101286.50;4986885;28;20029;-86
2023/08/08 09:03:36;;;;;;;3.20;1.27;;;;;;;16.52;72.31;101282.97;4985231;28;21061;-90
2023/08/08 09:06:02;;;;;;;5.78;1.60;;;;;;;16.56;72.89;101283.66;4986016;28;20042;-88
2023/08/08 09:08:29;;;;;;;5.40;1.40;;;;;;;16.61;73.46;101280.81;4987318;28;20018;-87
2023/08/08 09:10:56;;;;;;;3.65;1.17;;;;;;;16.66;71.97;101289.38;4988748;28;20095;-87
2023/08/08 09:13:22;;;;;;;3.85;1.10;;;;;;;16.67;72.54;101285.81;4965318;28;20034;-90
2023/08/08 09:15:49;;;;;;;4.22;1.67;;;;;;;16.69;72.12;101283.97;4987514;28;20391;-90
2023/08/08 09:18:14;;;;;;;3.25;1.40;;;;;;;16.70;72.57;101280.44;4994479;28;20034;-88
2023/08/08 09:20:40;;;;;;;3.92;1.40;;;;;;;16.76;73.47;101284.56;4992405;28;20039;-87
2023/08/08 09:23:05;;;;;;;5.63;1.60;;;;;;;16.84;72.96;101288.56;4989087;28;20037;-89
2023/08/08 09:25:30;;;;;;;5.38;1.70;;;;;;;16.88;72.29;101291.06;4989856;28;20040;-90
2023/08/08 09:27:56;;;;;;;5.45;1.73;;;;;;;16.90;73.02;101286.56;4990743;28;20469;-92
2023/08/08 09:33:01;;;;;;;3.47;1.48;;;;;;;16.82;71.45;101295.66;4602067;26;20097;-88
2023/08/08 09:35:28;;;;;;;4.15;1.50;;;;;;;16.80;71.72;101292.22;4988441;28;20053;-87
2023/08/08 09:37:54;;;;;;;2.95;1.40;;;;;;;16.78;72.36;101288.81;4989414;28;20634;-86
2023/08/08 09:40:21;;;;;;;4.30;1.40;;;;;;;16.83;72.23;101297.34;4990464;28;20041;-92
2023/08/08 09:42:48;;;;;;;6.18;1.65;;;;;;;16.89;71.58;101295.38;4991179;28;20349;-89
2023/08/08 09:45:14;;;;;;;4.05;1.60;;;;;;;16.96;71.80;101294.19;4993497;28;20045;-90
2023/08/08 09:47:39;;;;;;;5.13;1.48;;;;;;;16.97;70.09;101298.53;4994042;28;20053;-92
2023/08/08 09:50:05;;;;;;;3.67;1.38;;;;;;;16.95;69.78;101306.50;4991508;28;20026;-91
2023/08/08 09:52:33;;;;;;;3.17;1.60;;;;;;;16.90;70.72;101302.34;4983609;23;20123;-89
2023/08/08 09:54:59;;;;;;;6.68;1.70;;;;;;;16.91;70.80;101307.53;4983661;28;20037;-92
2023/08/08 09:57:25;;;;;;;2.95;1.40;;;;;;;16.95;70.24;101326.66;4974266;28;20034;-88
2023/08/08 09:59:52;;;;;;;5.47;1.83;;;;;;;16.94;70.27;101310.03;4970108;28;20089;-94
2023/08/08 10:02:18;;;;;;;3.65;1.77;;;;;;;16.95;69.49;101308.25;4969346;28;20871;-93
2023/08/08 10:04:45;;;;;;;5.95;1.35;;;;;;;16.92;69.26;101300.47;4971779;28;20034;-91
2023/08/08 10:07:10;;;;;;;4.18;1.60;;;;;;;16.91;69.79;101294.38;4971929;28;20035;-91
2023/08/08 10:09:37;;;;;;;5.70;1.50;;;;;;;16.92;69.17;101293.47;4970330;28;20558;-88
2023/08/08 10:12:04;;;;;;;4.43;1.50;;;;;;;16.97;68.53;101294.16;4955433;28;20638;-88
2023/08/08 10:14:31;;;;;;;5.93;1.60;;;;;;;17.03;68.74;101293.00;4970697;28;20035;-91
2023/08/08 10:16:57;;;;;;;3.25;1.30;;;;;;;17.11;67.38;101303.16;4972572;28;20045;-91
2023/08/08 10:19:23;;;;;;;3.70;1.10;;;;;;;17.18;66.72;101298.47;4969507;28;20038;-91
2023/08/08 10:21:56;;;;;;;3.47;1.15;;;;;;;17.28;66.55;101302.38;4953176;28;20385;-88
2023/08/08 10:24:21;;;;;;;3.85;1.15;;;;;;;17.35;66.09;101292.41;4971582;28;20031;-85
2023/08/08 10:26:57;;;;;;;2.75;1.00;;;;;;;17.43;67.21;101304.28;4972084;28;20118;-86
2023/08/08 10:29:25;;;;;;;4.63;1.20;;;;;;;17.48;66.79;101304.09;4968725;28;20064;-94
2023/08/08 10:32:03;;;;;;;3.60;1.10;;;;;;;17.45;67.88;101299.81;4966840;28;20026;-90
2023/08/08 10:34:43;;;;;;;4.60;1.33;;;;;;;17.42;66.43;101304.38;4968615;28;20030;-91
2023/08/08 10:37:14;;;;;;;2.83;1.27;;;;;;;17.38;66.39;101308.06;4968327;28;20063;-89
2023/08/08 10:39:57;;;;;;;3.75;1.15;;;;;;;17.36;66.99;101300.25;4966920;28;20471;-91
2023/08/08 10:42:25;;;;;;;2.67;1.10;;;;;;;17.38;67.07;101302.78;4967592;28;20431;-90
2023/08/08 10:45:02;;;;;;;5.07;1.20;;;;;;;17.42;66.24;101297.31;4966953;28;20119;-89
2023/08/08 10:47:35;;;;;;;4.97;1.38;;;;;;;17.49;66.58;101312.81;4967240;28;20058;-93
2023/08/08 10:50:09;;;;;;;3.30;1.27;;;;;;;17.53;64.58;101298.59;4964389;28;20382;-88
2023/08/08 10:52:50;;;;;;;5.10;1.00;;;;;;;17.61;66.40;101304.31;4946265;28;20051;-87
2023/08/08 10:55:26;;;;;;;2.90;1.30;;;;;;;17.64;65.47;101298.91;4930379;29;20428;-87
2023/08/08 10:57:59;;;;;;;3.83;1.15;;;;;;;17.68;64.71;101297.00;4928324;29;20414;-87
2023/08/08 11:00:29;;;;;;;3.20;1.10;;;;;;;17.69;64.81;101296.94;4947512;29;20024;-91
2023/08/08 11:02:55;;;;;;;1.85;1.10;;;;;;;17.72;63.65;101302.06;4948478;29;20072;-88
2023/08/08 11:05:22;;;;;;;4.68;1.10;;;;;;;17.76;64.27;101297.47;4946694;29;20026;-90
2023/08/08 11:07:47;;;;;;;1.80;1.00;;;;;;;17.81;64.23;101294.63;4946870;28;20040;-89
2023/08/08 11:10:13;;;;;;;2.08;1.10;;;;;;;17.86;64.37;101290.81;4944999;28;20865;-89
2023/08/08 11:12:38;;;;;;;2.72;1.35;;;;;;;17.86;64.78;101288.19;4948623;28;20038;-88
2023/08/08 11:15:04;;;;;;;3.03;1.10;;;;;;;17.82;64.55;101291.06;4948131;29;20035;-89
2023/08/08 11:17:30;;;;;;;6.32;1.30;;;;;;;17.80;64.72;101282.38;4947986;28;20062;-92
2023/08/08 11:19:55;;;;;;;4.60;1.40;;;;;;;17.79;62.87;101293.84;4947082;29;20449;-89
2023/08/08 11:22:22;;;;;;;3.45;1.70;;;;;;;17.79;62.57;101281.53;4944885;29;20026;-89